Dillingham Airport
PADL : now visible

Airfield :











YOU CAN JOIN US ON...

 
LOGIN :

Register | Disclaimer

   EN    FR    IT 

 









Legend :    VFR   Marginal VFR   IFR   Intensive IFR   Very Intensive IFR
Visi :
Ceiling :
>= 8 km
>= 3000ft
5 to 8 km
1000 to 3000 ft
1500m to 5 km
500 to 1000 ft
800 to 1500m
200 to 500 ft
< 800m
< 200 ft
Symbols :   Thunderstorms  Fog  Heavy snow  Heavy precipitations  Wind > 20 kt






- Airport Elevation : 81 ft
- IATA code : DLG


PADL - Dillingham

CURRENT METAR :
  • 300956Z AUTO 36004KT 10SM CLR M09/M16 A3007 RMK AO2 SLP189 T10941161 FZRANO

EXPIRED METARs :
  • 300856Z AUTO 36004KT 10SM CLR M08/M16 A3008 RMK AO2 SLP189 T10781161 410331122 53003 FZRANO
  • 300756Z AUTO 01009KT 10SM CLR M07/M16 A3006 RMK AO2 SLP185 T10671161 FZRANO

TAF PADL
Valid from the 30 at 06:00 until the 31 at 06:00 UTC


300520Z 3006/3106 VRB06KT P6SM SKC



MET'MAP, your aeronautical weather chart ! - Copyright ORBIFLY December 2007 - Disclaimer

ORBIFLY MET'MAP TEAM :

Programming & Development : Alexandra Zaïnal
Concept & original design : Baudouin d'Aumeries
Assistance for programming : Marc-Olivier Méhu
Technical & hardware support : Manuel Goepfert

Contact : metmap@orbifly.com




SOURCES & CREDITS :

   NOAA       Earth
Advisory